sensor_id;sensor_type;location;lat;lon;timestamp;P1;durP1;ratioP1;P2;durP2;ratioP2
5465;SDS011;2755;50.728;7.108;2023-07-13T00:00:25;203.13;;;180.83;;
5465;SDS011;2755;50.728;7.108;2023-07-13T00:02:52;212.23;;;189.63;;
5465;SDS011;2755;50.728;7.108;2023-07-13T00:05:21;206.63;;;184.07;;
5465;SDS011;2755;50.728;7.108;2023-07-13T00:07:47;224.80;;;201.30;;
5465;SDS011;2755;50.728;7.108;2023-07-13T00:10:13;216.03;;;192.87;;
5465;SDS011;2755;50.728;7.108;2023-07-13T00:12:39;220.43;;;197.10;;
5465;SDS011;2755;50.728;7.108;2023-07-13T00:15:06;222.37;;;198.90;;
5465;SDS011;2755;50.728;7.108;2023-07-13T00:17:38;219.23;;;195.97;;
5465;SDS011;2755;50.728;7.108;2023-07-13T00:20:04;224.03;;;200.23;;
5465;SDS011;2755;50.728;7.108;2023-07-13T00:22:30;221.13;;;197.53;;
5465;SDS011;2755;50.728;7.108;2023-07-13T00:24:56;210.87;;;187.80;;
5465;SDS011;2755;50.728;7.108;2023-07-13T00:27:22;197.97;;;166.33;;
5465;SDS011;2755;50.728;7.108;2023-07-13T00:29:48;197.63;;;168.43;;
5465;SDS011;2755;50.728;7.108;2023-07-13T00:32:13;193.37;;;162.50;;
5465;SDS011;2755;50.728;7.108;2023-07-13T00:34:39;190.70;;;154.60;;
5465;SDS011;2755;50.728;7.108;2023-07-13T00:37:05;190.50;;;155.60;;
5465;SDS011;2755;50.728;7.108;2023-07-13T00:39:32;188.27;;;153.30;;
5465;SDS011;2755;50.728;7.108;2023-07-13T00:41:59;190.43;;;152.50;;
5465;SDS011;2755;50.728;7.108;2023-07-13T00:44:25;187.13;;;150.77;;
5465;SDS011;2755;50.728;7.108;2023-07-13T00:46:51;184.80;;;145.43;;
5465;SDS011;2755;50.728;7.108;2023-07-13T00:49:18;183.07;;;142.17;;
5465;SDS011;2755;50.728;7.108;2023-07-13T00:52:03;182.07;;;141.63;;
5465;SDS011;2755;50.728;7.108;2023-07-13T00:54:33;177.40;;;134.53;;
5465;SDS011;2755;50.728;7.108;2023-07-13T00:57:05;177.83;;;135.33;;
5465;SDS011;2755;50.728;7.108;2023-07-13T00:59:35;178.03;;;134.77;;
5465;SDS011;2755;50.728;7.108;2023-07-13T01:02:03;171.70;;;126.10;;
5465;SDS011;2755;50.728;7.108;2023-07-13T01:04:29;172.37;;;127.97;;
5465;SDS011;2755;50.728;7.108;2023-07-13T01:06:54;169.67;;;122.87;;
5465;SDS011;2755;50.728;7.108;2023-07-13T01:09:21;171.60;;;125.07;;
5465;SDS011;2755;50.728;7.108;2023-07-13T01:11:47;173.17;;;129.63;;
5465;SDS011;2755;50.728;7.108;2023-07-13T01:14:14;175.33;;;134.17;;
5465;SDS011;2755;50.728;7.108;2023-07-13T01:16:40;177.87;;;135.57;;
5465;SDS011;2755;50.728;7.108;2023-07-13T01:19:53;178.67;;;138.90;;
5465;SDS011;2755;50.728;7.108;2023-07-13T01:22:10;180.77;;;143.50;;
5465;SDS011;2755;50.728;7.108;2023-07-13T01:24:37;177.43;;;135.67;;
5465;SDS011;2755;50.728;7.108;2023-07-13T01:27:04;181.97;;;143.77;;
5465;SDS011;2755;50.728;7.108;2023-07-13T01:29:31;182.03;;;143.93;;
5465;SDS011;2755;50.728;7.108;2023-07-13T01:31:58;178.10;;;137.80;;
5465;SDS011;2755;50.728;7.108;2023-07-13T01:34:25;181.77;;;143.13;;
5465;SDS011;2755;50.728;7.108;2023-07-13T01:36:51;180.57;;;140.60;;
5465;SDS011;2755;50.728;7.108;2023-07-13T01:39:18;177.77;;;135.27;;
5465;SDS011;2755;50.728;7.108;2023-07-13T01:41:47;175.53;;;133.37;;
5465;SDS011;2755;50.728;7.108;2023-07-13T01:44:12;174.33;;;129.87;;
5465;SDS011;2755;50.728;7.108;2023-07-13T01:46:38;172.73;;;128.93;;
5465;SDS011;2755;50.728;7.108;2023-07-13T01:49:04;172.93;;;126.93;;
5465;SDS011;2755;50.728;7.108;2023-07-13T01:51:30;177.63;;;137.13;;
5465;SDS011;2755;50.728;7.108;2023-07-13T01:53:55;171.67;;;126.20;;
5465;SDS011;2755;50.728;7.108;2023-07-13T01:56:21;172.97;;;127.97;;
5465;SDS011;2755;50.728;7.108;2023-07-13T01:58:47;172.67;;;127.93;;
5465;SDS011;2755;50.728;7.108;2023-07-13T02:01:13;169.63;;;122.23;;
5465;SDS011;2755;50.728;7.108;2023-07-13T02:03:39;176.63;;;135.83;;
5465;SDS011;2755;50.728;7.108;2023-07-13T02:06:04;175.13;;;133.53;;
5465;SDS011;2755;50.728;7.108;2023-07-13T02:08:32;177.53;;;135.33;;
5465;SDS011;2755;50.728;7.108;2023-07-13T02:10:58;179.43;;;141.27;;
5465;SDS011;2755;50.728;7.108;2023-07-13T02:13:24;177.17;;;137.07;;
5465;SDS011;2755;50.728;7.108;2023-07-13T02:15:50;177.90;;;135.80;;
5465;SDS011;2755;50.728;7.108;2023-07-13T02:18:16;175.43;;;133.30;;
5465;SDS011;2755;50.728;7.108;2023-07-13T02:20:42;184.30;;;148.37;;
5465;SDS011;2755;50.728;7.108;2023-07-13T02:23:08;185.00;;;149.37;;
5465;SDS011;2755;50.728;7.108;2023-07-13T02:25:34;191.20;;;161.37;;
5465;SDS011;2755;50.728;7.108;2023-07-13T02:27:59;194.47;;;163.43;;
5465;SDS011;2755;50.728;7.108;2023-07-13T02:30:26;186.60;;;152.73;;
5465;SDS011;2755;50.728;7.108;2023-07-13T02:32:54;193.63;;;164.50;;
5465;SDS011;2755;50.728;7.108;2023-07-13T02:35:23;189.80;;;158.17;;
5465;SDS011;2755;50.728;7.108;2023-07-13T02:37:48;196.43;;;169.77;;
5465;SDS011;2755;50.728;7.108;2023-07-13T02:40:14;194.33;;;168.43;;
5465;SDS011;2755;50.728;7.108;2023-07-13T02:42:40;200.83;;;178.13;;
5465;SDS011;2755;50.728;7.108;2023-07-13T02:45:07;196.77;;;171.80;;
5465;SDS011;2755;50.728;7.108;2023-07-13T02:47:34;200.40;;;177.73;;
5465;SDS011;2755;50.728;7.108;2023-07-13T02:49:59;205.73;;;183.37;;
5465;SDS011;2755;50.728;7.108;2023-07-13T02:52:26;211.23;;;188.43;;
5465;SDS011;2755;50.728;7.108;2023-07-13T02:54:52;213.47;;;190.50;;
5465;SDS011;2755;50.728;7.108;2023-07-13T02:57:17;216.10;;;193.10;;
5465;SDS011;2755;50.728;7.108;2023-07-13T02:59:43;226.23;;;202.73;;
5465;SDS011;2755;50.728;7.108;2023-07-13T03:02:08;238.73;;;214.47;;
5465;SDS011;2755;50.728;7.108;2023-07-13T03:04:35;235.57;;;211.43;;
5465;SDS011;2755;50.728;7.108;2023-07-13T03:07:01;250.27;;;225.30;;
5465;SDS011;2755;50.728;7.108;2023-07-13T03:09:27;245.40;;;220.60;;
5465;SDS011;2755;50.728;7.108;2023-07-13T03:11:53;243.50;;;219.00;;
5465;SDS011;2755;50.728;7.108;2023-07-13T03:14:20;226.53;;;202.83;;
5465;SDS011;2755;50.728;7.108;2023-07-13T03:16:46;237.70;;;213.30;;
5465;SDS011;2755;50.728;7.108;2023-07-13T03:19:12;226.03;;;202.33;;
5465;SDS011;2755;50.728;7.108;2023-07-13T03:21:37;226.87;;;203.17;;
5465;SDS011;2755;50.728;7.108;2023-07-13T03:24:03;211.53;;;188.63;;
5465;SDS011;2755;50.728;7.108;2023-07-13T03:26:29;219.30;;;195.93;;
5465;SDS011;2755;50.728;7.108;2023-07-13T03:28:54;217.70;;;194.20;;
5465;SDS011;2755;50.728;7.108;2023-07-13T03:31:21;204.40;;;181.77;;
5465;SDS011;2755;50.728;7.108;2023-07-13T03:33:50;206.77;;;184.13;;
5465;SDS011;2755;50.728;7.108;2023-07-13T03:36:17;204.07;;;181.57;;
5465;SDS011;2755;50.728;7.108;2023-07-13T03:38:46;202.30;;;179.03;;
5465;SDS011;2755;50.728;7.108;2023-07-13T03:41:13;207.57;;;185.07;;
5465;SDS011;2755;50.728;7.108;2023-07-13T03:43:39;217.00;;;193.80;;
5465;SDS011;2755;50.728;7.108;2023-07-13T03:46:05;208.13;;;185.37;;
5465;SDS011;2755;50.728;7.108;2023-07-13T03:48:30;211.27;;;188.40;;
5465;SDS011;2755;50.728;7.108;2023-07-13T03:50:56;215.13;;;192.27;;
5465;SDS011;2755;50.728;7.108;2023-07-13T03:53:22;215.47;;;192.43;;
5465;SDS011;2755;50.728;7.108;2023-07-13T03:55:48;212.93;;;189.83;;
5465;SDS011;2755;50.728;7.108;2023-07-13T03:58:24;214.27;;;191.17;;
5465;SDS011;2755;50.728;7.108;2023-07-13T04:00:53;207.13;;;184.37;;
5465;SDS011;2755;50.728;7.108;2023-07-13T04:03:20;222.67;;;199.00;;
5465;SDS011;2755;50.728;7.108;2023-07-13T04:05:45;217.10;;;193.87;;
5465;SDS011;2755;50.728;7.108;2023-07-13T04:08:11;218.37;;;195.10;;
5465;SDS011;2755;50.728;7.108;2023-07-13T04:10:38;216.27;;;193.20;;
5465;SDS011;2755;50.728;7.108;2023-07-13T04:13:04;219.60;;;196.30;;
5465;SDS011;2755;50.728;7.108;2023-07-13T04:15:30;211.67;;;188.80;;
5465;SDS011;2755;50.728;7.108;2023-07-13T04:17:56;207.20;;;184.70;;
5465;SDS011;2755;50.728;7.108;2023-07-13T04:20:22;202.30;;;178.77;;
5465;SDS011;2755;50.728;7.108;2023-07-13T04:22:49;193.57;;;165.07;;
5465;SDS011;2755;50.728;7.108;2023-07-13T04:25:15;188.73;;;155.77;;
5465;SDS011;2755;50.728;7.108;2023-07-13T04:27:41;188.93;;;159.57;;
5465;SDS011;2755;50.728;7.108;2023-07-13T04:30:07;183.53;;;145.47;;
5465;SDS011;2755;50.728;7.108;2023-07-13T04:32:33;187.07;;;150.00;;
5465;SDS011;2755;50.728;7.108;2023-07-13T04:34:59;184.93;;;150.00;;
5465;SDS011;2755;50.728;7.108;2023-07-13T04:37:25;185.83;;;148.40;;
5465;SDS011;2755;50.728;7.108;2023-07-13T04:39:51;180.40;;;138.50;;
5465;SDS011;2755;50.728;7.108;2023-07-13T04:42:17;177.70;;;136.83;;
5465;SDS011;2755;50.728;7.108;2023-07-13T04:44:50;178.33;;;135.87;;
5465;SDS011;2755;50.728;7.108;2023-07-13T04:47:16;173.63;;;129.13;;
5465;SDS011;2755;50.728;7.108;2023-07-13T04:49:42;178.47;;;134.63;;
5465;SDS011;2755;50.728;7.108;2023-07-13T04:52:08;164.43;;;112.00;;
5465;SDS011;2755;50.728;7.108;2023-07-13T04:54:34;169.37;;;113.67;;
5465;SDS011;2755;50.728;7.108;2023-07-13T04:57:00;166.57;;;116.27;;
5465;SDS011;2755;50.728;7.108;2023-07-13T04:59:26;167.17;;;118.17;;
5465;SDS011;2755;50.728;7.108;2023-07-13T05:01:52;170.93;;;125.67;;
5465;SDS011;2755;50.728;7.108;2023-07-13T05:04:20;169.37;;;120.57;;
5465;SDS011;2755;50.728;7.108;2023-07-13T05:06:46;170.10;;;121.10;;
5465;SDS011;2755;50.728;7.108;2023-07-13T05:09:12;171.17;;;122.67;;
5465;SDS011;2755;50.728;7.108;2023-07-13T05:11:37;173.57;;;125.37;;
5465;SDS011;2755;50.728;7.108;2023-07-13T05:14:03;179.67;;;132.97;;
5465;SDS011;2755;50.728;7.108;2023-07-13T05:16:29;177.17;;;131.80;;
5465;SDS011;2755;50.728;7.108;2023-07-13T05:18:56;179.17;;;134.23;;
5465;SDS011;2755;50.728;7.108;2023-07-13T05:21:22;182.30;;;143.30;;
5465;SDS011;2755;50.728;7.108;2023-07-13T05:23:47;183.87;;;147.93;;
5465;SDS011;2755;50.728;7.108;2023-07-13T05:26:13;188.43;;;156.73;;
5465;SDS011;2755;50.728;7.108;2023-07-13T05:28:39;181.33;;;141.90;;
5465;SDS011;2755;50.728;7.108;2023-07-13T05:31:06;178.13;;;135.93;;
5465;SDS011;2755;50.728;7.108;2023-07-13T05:33:33;184.80;;;145.83;;
5465;SDS011;2755;50.728;7.108;2023-07-13T05:35:58;183.13;;;144.43;;
5465;SDS011;2755;50.728;7.108;2023-07-13T05:38:25;178.47;;;136.83;;
5465;SDS011;2755;50.728;7.108;2023-07-13T05:40:52;182.13;;;144.03;;
5465;SDS011;2755;50.728;7.108;2023-07-13T05:43:23;189.03;;;150.77;;
5465;SDS011;2755;50.728;7.108;2023-07-13T05:45:49;196.37;;;168.07;;
5465;SDS011;2755;50.728;7.108;2023-07-13T05:48:18;188.33;;;153.83;;
5465;SDS011;2755;50.728;7.108;2023-07-13T05:50:43;188.80;;;152.87;;
5465;SDS011;2755;50.728;7.108;2023-07-13T05:53:09;195.43;;;163.67;;
5465;SDS011;2755;50.728;7.108;2023-07-13T05:55:40;183.30;;;143.63;;
5465;SDS011;2755;50.728;7.108;2023-07-13T05:58:10;184.43;;;142.90;;
5465;SDS011;2755;50.728;7.108;2023-07-13T06:00:36;188.13;;;151.97;;
5465;SDS011;2755;50.728;7.108;2023-07-13T06:03:02;191.83;;;159.13;;
5465;SDS011;2755;50.728;7.108;2023-07-13T06:05:27;198.93;;;169.77;;
5465;SDS011;2755;50.728;7.108;2023-07-13T06:07:54;217.03;;;193.53;;
5465;SDS011;2755;50.728;7.108;2023-07-13T06:10:19;218.83;;;195.37;;
5465;SDS011;2755;50.728;7.108;2023-07-13T06:12:45;234.07;;;210.07;;
5465;SDS011;2755;50.728;7.108;2023-07-13T06:15:11;223.90;;;200.20;;
5465;SDS011;2755;50.728;7.108;2023-07-13T06:17:37;206.53;;;183.83;;
5465;SDS011;2755;50.728;7.108;2023-07-13T06:20:03;199.47;;;171.57;;
5465;SDS011;2755;50.728;7.108;2023-07-13T06:22:28;196.03;;;166.33;;
5465;SDS011;2755;50.728;7.108;2023-07-13T06:24:55;192.57;;;160.63;;
5465;SDS011;2755;50.728;7.108;2023-07-13T06:27:21;191.10;;;156.87;;
5465;SDS011;2755;50.728;7.108;2023-07-13T06:29:47;188.90;;;147.87;;
5465;SDS011;2755;50.728;7.108;2023-07-13T06:32:12;183.00;;;142.83;;
5465;SDS011;2755;50.728;7.108;2023-07-13T06:34:38;180.83;;;142.63;;
5465;SDS011;2755;50.728;7.108;2023-07-13T06:37:04;178.27;;;135.77;;
5465;SDS011;2755;50.728;7.108;2023-07-13T06:39:30;181.07;;;138.77;;
5465;SDS011;2755;50.728;7.108;2023-07-13T06:41:56;178.40;;;135.47;;
5465;SDS011;2755;50.728;7.108;2023-07-13T06:44:22;176.63;;;131.60;;
5465;SDS011;2755;50.728;7.108;2023-07-13T06:46:47;179.83;;;135.57;;
5465;SDS011;2755;50.728;7.108;2023-07-13T06:49:13;181.20;;;139.93;;
5465;SDS011;2755;50.728;7.108;2023-07-13T06:51:39;183.43;;;145.17;;
5465;SDS011;2755;50.728;7.108;2023-07-13T06:54:05;181.13;;;140.23;;
5465;SDS011;2755;50.728;7.108;2023-07-13T06:56:30;185.10;;;148.33;;
5465;SDS011;2755;50.728;7.108;2023-07-13T06:58:56;185.90;;;147.53;;
5465;SDS011;2755;50.728;7.108;2023-07-13T07:01:22;192.43;;;157.80;;
5465;SDS011;2755;50.728;7.108;2023-07-13T07:03:48;193.80;;;163.13;;
5465;SDS011;2755;50.728;7.108;2023-07-13T07:06:16;195.53;;;164.63;;
5465;SDS011;2755;50.728;7.108;2023-07-13T07:08:48;194.27;;;162.63;;
5465;SDS011;2755;50.728;7.108;2023-07-13T07:11:17;189.90;;;155.70;;
5465;SDS011;2755;50.728;7.108;2023-07-13T07:13:47;193.10;;;160.00;;
5465;SDS011;2755;50.728;7.108;2023-07-13T07:16:12;195.43;;;160.53;;
5465;SDS011;2755;50.728;7.108;2023-07-13T07:18:39;197.93;;;160.67;;
5465;SDS011;2755;50.728;7.108;2023-07-13T07:21:04;199.17;;;168.03;;
5465;SDS011;2755;50.728;7.108;2023-07-13T07:23:30;199.17;;;170.83;;
5465;SDS011;2755;50.728;7.108;2023-07-13T07:25:56;215.73;;;191.73;;
5465;SDS011;2755;50.728;7.108;2023-07-13T07:28:22;220.27;;;196.57;;
5465;SDS011;2755;50.728;7.108;2023-07-13T07:30:48;199.90;;;171.30;;
5465;SDS011;2755;50.728;7.108;2023-07-13T07:33:15;196.30;;;163.43;;
5465;SDS011;2755;50.728;7.108;2023-07-13T07:35:41;199.83;;;171.53;;
5465;SDS011;2755;50.728;7.108;2023-07-13T07:38:08;211.70;;;188.67;;
5465;SDS011;2755;50.728;7.108;2023-07-13T07:40:36;230.07;;;206.23;;
5465;SDS011;2755;50.728;7.108;2023-07-13T07:43:03;231.73;;;207.57;;
5465;SDS011;2755;50.728;7.108;2023-07-13T07:45:29;222.73;;;198.43;;
5465;SDS011;2755;50.728;7.108;2023-07-13T07:47:55;224.53;;;200.73;;
5465;SDS011;2755;50.728;7.108;2023-07-13T07:50:23;239.60;;;215.13;;
5465;SDS011;2755;50.728;7.108;2023-07-13T07:52:52;249.10;;;224.13;;
5465;SDS011;2755;50.728;7.108;2023-07-13T07:55:19;242.57;;;217.80;;
5465;SDS011;2755;50.728;7.108;2023-07-13T07:57:44;220.63;;;196.97;;
5465;SDS011;2755;50.728;7.108;2023-07-13T08:00:10;221.37;;;197.83;;
5465;SDS011;2755;50.728;7.108;2023-07-13T08:02:43;219.93;;;196.37;;
5465;SDS011;2755;50.728;7.108;2023-07-13T08:05:09;208.37;;;185.40;;
5465;SDS011;2755;50.728;7.108;2023-07-13T08:07:36;207.43;;;182.77;;
5465;SDS011;2755;50.728;7.108;2023-07-13T08:10:03;212.20;;;188.93;;
5465;SDS011;2755;50.728;7.108;2023-07-13T08:12:29;204.33;;;178.40;;
5465;SDS011;2755;50.728;7.108;2023-07-13T08:14:58;205.00;;;180.57;;
5465;SDS011;2755;50.728;7.108;2023-07-13T08:17:25;204.23;;;179.43;;
5465;SDS011;2755;50.728;7.108;2023-07-13T08:19:51;216.57;;;193.03;;
5465;SDS011;2755;50.728;7.108;2023-07-13T08:22:16;215.47;;;192.13;;
5465;SDS011;2755;50.728;7.108;2023-07-13T08:24:42;231.80;;;207.60;;
5465;SDS011;2755;50.728;7.108;2023-07-13T08:27:08;250.83;;;225.57;;
5465;SDS011;2755;50.728;7.108;2023-07-13T08:29:36;251.47;;;226.03;;
5465;SDS011;2755;50.728;7.108;2023-07-13T08:32:02;252.67;;;227.17;;
5465;SDS011;2755;50.728;7.108;2023-07-13T08:34:28;256.10;;;230.23;;
5465;SDS011;2755;50.728;7.108;2023-07-13T08:36:54;239.90;;;215.03;;
5465;SDS011;2755;50.728;7.108;2023-07-13T08:39:21;218.90;;;195.20;;
5465;SDS011;2755;50.728;7.108;2023-07-13T08:41:47;209.53;;;186.23;;
5465;SDS011;2755;50.728;7.108;2023-07-13T08:44:24;199.23;;;169.60;;
5465;SDS011;2755;50.728;7.108;2023-07-13T08:46:50;200.77;;;173.13;;
5465;SDS011;2755;50.728;7.108;2023-07-13T08:49:19;219.43;;;195.83;;
5465;SDS011;2755;50.728;7.108;2023-07-13T08:51:50;239.17;;;214.33;;
5465;SDS011;2755;50.728;7.108;2023-07-13T08:54:31;219.63;;;195.87;;
5465;SDS011;2755;50.728;7.108;2023-07-13T08:57:16;227.73;;;203.47;;
5465;SDS011;2755;50.728;7.108;2023-07-13T08:59:44;234.87;;;209.90;;
5465;SDS011;2755;50.728;7.108;2023-07-13T09:02:35;239.77;;;214.97;;
5465;SDS011;2755;50.728;7.108;2023-07-13T09:15:14;242.50;;;217.53;;
5465;SDS011;2755;50.728;7.108;2023-07-13T09:18:08;245.17;;;220.07;;
5465;SDS011;2755;50.728;7.108;2023-07-13T09:20:46;239.07;;;214.07;;
5465;SDS011;2755;50.728;7.108;2023-07-13T09:23:17;248.90;;;223.50;;
5465;SDS011;2755;50.728;7.108;2023-07-13T09:25:46;268.40;;;242.13;;
5465;SDS011;2755;50.728;7.108;2023-07-13T09:28:19;258.17;;;232.47;;
5465;SDS011;2755;50.728;7.108;2023-07-13T09:33:21;229.20;;;205.10;;
5465;SDS011;2755;50.728;7.108;2023-07-13T09:35:47;208.40;;;185.43;;
5465;SDS011;2755;50.728;7.108;2023-07-13T09:38:16;226.33;;;202.47;;
5465;SDS011;2755;50.728;7.108;2023-07-13T09:40:44;232.90;;;208.50;;
5465;SDS011;2755;50.728;7.108;2023-07-13T09:43:15;222.77;;;198.87;;
5465;SDS011;2755;50.728;7.108;2023-07-13T09:45:41;214.13;;;190.70;;
5465;SDS011;2755;50.728;7.108;2023-07-13T09:48:12;220.17;;;196.67;;
5465;SDS011;2755;50.728;7.108;2023-07-13T09:50:40;207.20;;;183.80;;
5465;SDS011;2755;50.728;7.108;2023-07-13T09:53:16;217.57;;;193.97;;
5465;SDS011;2755;50.728;7.108;2023-07-13T09:55:43;222.73;;;198.93;;
5465;SDS011;2755;50.728;7.108;2023-07-13T10:00:40;223.83;;;199.87;;
5465;SDS011;2755;50.728;7.108;2023-07-13T10:05:49;217.83;;;194.30;;
5465;SDS011;2755;50.728;7.108;2023-07-13T10:08:36;215.97;;;192.57;;
5465;SDS011;2755;50.728;7.108;2023-07-13T10:11:18;213.63;;;190.33;;
5465;SDS011;2755;50.728;7.108;2023-07-13T10:16:25;227.90;;;203.70;;
5465;SDS011;2755;50.728;7.108;2023-07-13T10:18:55;230.37;;;206.17;;
5465;SDS011;2755;50.728;7.108;2023-07-13T10:21:23;235.53;;;211.07;;
5465;SDS011;2755;50.728;7.108;2023-07-13T10:23:54;222.40;;;198.47;;
5465;SDS011;2755;50.728;7.108;2023-07-13T10:26:25;239.20;;;214.43;;
5465;SDS011;2755;50.728;7.108;2023-07-13T10:28:56;232.73;;;208.33;;
5465;SDS011;2755;50.728;7.108;2023-07-13T10:31:26;236.60;;;212.10;;
5465;SDS011;2755;50.728;7.108;2023-07-13T10:33:53;234.07;;;209.57;;
5465;SDS011;2755;50.728;7.108;2023-07-13T10:36:32;237.90;;;213.00;;
5465;SDS011;2755;50.728;7.108;2023-07-13T10:39:06;237.33;;;212.73;;
5465;SDS011;2755;50.728;7.108;2023-07-13T10:41:36;231.30;;;207.00;;
5465;SDS011;2755;50.728;7.108;2023-07-13T10:44:06;248.50;;;223.20;;
5465;SDS011;2755;50.728;7.108;2023-07-13T10:46:41;226.23;;;202.47;;
5465;SDS011;2755;50.728;7.108;2023-07-13T10:49:09;228.33;;;204.27;;
5465;SDS011;2755;50.728;7.108;2023-07-13T10:51:36;238.00;;;213.53;;
5465;SDS011;2755;50.728;7.108;2023-07-13T10:56:48;266.97;;;240.77;;
5465;SDS011;2755;50.728;7.108;2023-07-13T10:59:17;275.63;;;248.97;;
5465;SDS011;2755;50.728;7.108;2023-07-13T11:01:55;276.80;;;250.20;;
5465;SDS011;2755;50.728;7.108;2023-07-13T11:04:27;255.30;;;229.80;;
5465;SDS011;2755;50.728;7.108;2023-07-13T11:06:58;233.10;;;208.73;;
5465;SDS011;2755;50.728;7.108;2023-07-13T11:12:08;219.93;;;196.50;;
5465;SDS011;2755;50.728;7.108;2023-07-13T11:22:48;200.93;;;173.07;;
5465;SDS011;2755;50.728;7.108;2023-07-13T11:33:18;202.27;;;172.53;;
5465;SDS011;2755;50.728;7.108;2023-07-13T11:35:51;199.83;;;170.77;;
5465;SDS011;2755;50.728;7.108;2023-07-13T11:38:33;200.77;;;172.33;;
5465;SDS011;2755;50.728;7.108;2023-07-13T11:41:02;198.83;;;169.27;;
5465;SDS011;2755;50.728;7.108;2023-07-13T11:43:30;201.63;;;175.07;;
5465;SDS011;2755;50.728;7.108;2023-07-13T11:45:58;202.83;;;176.83;;
5465;SDS011;2755;50.728;7.108;2023-07-13T11:48:40;200.97;;;171.37;;
5465;SDS011;2755;50.728;7.108;2023-07-13T11:51:06;199.47;;;171.70;;
5465;SDS011;2755;50.728;7.108;2023-07-13T11:53:40;200.70;;;173.63;;
5465;SDS011;2755;50.728;7.108;2023-07-13T11:56:10;215.10;;;191.87;;
5465;SDS011;2755;50.728;7.108;2023-07-13T11:58:36;205.43;;;182.73;;
5465;SDS011;2755;50.728;7.108;2023-07-13T12:01:03;202.27;;;178.20;;
5465;SDS011;2755;50.728;7.108;2023-07-13T12:03:30;200.77;;;173.63;;
5465;SDS011;2755;50.728;7.108;2023-07-13T12:06:17;201.17;;;176.00;;
5465;SDS011;2755;50.728;7.108;2023-07-13T12:08:43;203.80;;;176.77;;
5465;SDS011;2755;50.728;7.108;2023-07-13T12:11:16;209.27;;;186.30;;
5465;SDS011;2755;50.728;7.108;2023-07-13T12:13:43;210.30;;;187.20;;
5465;SDS011;2755;50.728;7.108;2023-07-13T12:16:17;219.43;;;195.87;;
5465;SDS011;2755;50.728;7.108;2023-07-13T12:18:47;216.20;;;192.80;;
5465;SDS011;2755;50.728;7.108;2023-07-13T12:21:14;220.93;;;197.27;;
5465;SDS011;2755;50.728;7.108;2023-07-13T12:23:43;215.13;;;191.63;;
5465;SDS011;2755;50.728;7.108;2023-07-13T12:26:10;219.80;;;196.30;;
5465;SDS011;2755;50.728;7.108;2023-07-13T12:28:38;205.30;;;180.73;;
5465;SDS011;2755;50.728;7.108;2023-07-13T12:31:22;210.23;;;187.13;;
5465;SDS011;2755;50.728;7.108;2023-07-13T12:33:49;207.43;;;184.60;;
5465;SDS011;2755;50.728;7.108;2023-07-13T12:36:21;217.37;;;193.97;;
5465;SDS011;2755;50.728;7.108;2023-07-13T12:38:47;230.00;;;205.93;;
5465;SDS011;2755;50.728;7.108;2023-07-13T12:41:14;242.47;;;217.67;;
5465;SDS011;2755;50.728;7.108;2023-07-13T12:43:40;237.50;;;213.00;;
5465;SDS011;2755;50.728;7.108;2023-07-13T12:46:19;250.47;;;225.33;;
5465;SDS011;2755;50.728;7.108;2023-07-13T12:48:49;255.03;;;229.57;;
5465;SDS011;2755;50.728;7.108;2023-07-13T12:51:17;239.37;;;214.70;;
5465;SDS011;2755;50.728;7.108;2023-07-13T12:53:50;238.93;;;214.27;;
5465;SDS011;2755;50.728;7.108;2023-07-13T12:56:22;236.47;;;212.03;;
5465;SDS011;2755;50.728;7.108;2023-07-13T12:58:48;233.97;;;209.53;;
5465;SDS011;2755;50.728;7.108;2023-07-13T13:01:19;241.90;;;217.37;;
5465;SDS011;2755;50.728;7.108;2023-07-13T13:03:51;240.23;;;215.63;;
5465;SDS011;2755;50.728;7.108;2023-07-13T13:06:20;232.43;;;208.30;;
5465;SDS011;2755;50.728;7.108;2023-07-13T13:08:50;234.83;;;210.53;;
5465;SDS011;2755;50.728;7.108;2023-07-13T13:11:18;242.57;;;218.00;;
5465;SDS011;2755;50.728;7.108;2023-07-13T13:13:45;237.03;;;212.73;;
5465;SDS011;2755;50.728;7.108;2023-07-13T13:16:26;248.60;;;223.63;;
5465;SDS011;2755;50.728;7.108;2023-07-13T13:18:57;237.07;;;212.87;;
5465;SDS011;2755;50.728;7.108;2023-07-13T13:21:24;235.20;;;210.97;;
5465;SDS011;2755;50.728;7.108;2023-07-13T13:23:51;234.97;;;210.70;;
5465;SDS011;2755;50.728;7.108;2023-07-13T13:26:18;217.17;;;193.80;;
5465;SDS011;2755;50.728;7.108;2023-07-13T13:28:44;213.00;;;190.00;;
5465;SDS011;2755;50.728;7.108;2023-07-13T13:31:10;218.27;;;194.97;;
5465;SDS011;2755;50.728;7.108;2023-07-13T13:33:43;222.97;;;199.17;;
5465;SDS011;2755;50.728;7.108;2023-07-13T13:36:20;218.30;;;194.90;;
5465;SDS011;2755;50.728;7.108;2023-07-13T13:38:48;221.17;;;197.67;;
5465;SDS011;2755;50.728;7.108;2023-07-13T13:41:15;218.77;;;195.17;;
5465;SDS011;2755;50.728;7.108;2023-07-13T13:43:41;214.03;;;190.50;;
5465;SDS011;2755;50.728;7.108;2023-07-13T13:46:11;220.87;;;196.87;;
5465;SDS011;2755;50.728;7.108;2023-07-13T13:48:44;210.80;;;187.60;;
5465;SDS011;2755;50.728;7.108;2023-07-13T13:51:16;204.43;;;181.77;;
5465;SDS011;2755;50.728;7.108;2023-07-13T13:53:43;211.20;;;188.17;;
5465;SDS011;2755;50.728;7.108;2023-07-13T13:56:10;203.57;;;178.67;;
5465;SDS011;2755;50.728;7.108;2023-07-13T13:58:36;203.73;;;178.80;;
5465;SDS011;2755;50.728;7.108;2023-07-13T14:01:02;203.20;;;179.10;;
5465;SDS011;2755;50.728;7.108;2023-07-13T14:03:31;210.37;;;187.30;;
5465;SDS011;2755;50.728;7.108;2023-07-13T14:05:57;211.57;;;188.47;;
5465;SDS011;2755;50.728;7.108;2023-07-13T14:08:23;207.57;;;183.57;;
5465;SDS011;2755;50.728;7.108;2023-07-13T14:10:49;212.87;;;189.57;;
5465;SDS011;2755;50.728;7.108;2023-07-13T14:13:22;208.27;;;185.17;;
5465;SDS011;2755;50.728;7.108;2023-07-13T14:15:51;214.07;;;190.77;;
5465;SDS011;2755;50.728;7.108;2023-07-13T14:18:17;208.20;;;185.30;;
5465;SDS011;2755;50.728;7.108;2023-07-13T14:20:44;208.07;;;184.13;;
5465;SDS011;2755;50.728;7.108;2023-07-13T14:23:12;212.73;;;189.37;;
5465;SDS011;2755;50.728;7.108;2023-07-13T14:25:38;206.10;;;183.27;;
5465;SDS011;2755;50.728;7.108;2023-07-13T14:28:13;204.47;;;179.17;;
5465;SDS011;2755;50.728;7.108;2023-07-13T14:30:45;209.60;;;186.60;;
5465;SDS011;2755;50.728;7.108;2023-07-13T14:33:12;204.20;;;179.50;;
5465;SDS011;2755;50.728;7.108;2023-07-13T14:35:38;197.47;;;168.43;;
5465;SDS011;2755;50.728;7.108;2023-07-13T14:38:04;201.17;;;170.23;;
5465;SDS011;2755;50.728;7.108;2023-07-13T14:40:32;203.70;;;178.37;;
5465;SDS011;2755;50.728;7.108;2023-07-13T14:42:58;202.73;;;178.77;;
5465;SDS011;2755;50.728;7.108;2023-07-13T14:45:24;213.10;;;190.00;;
5465;SDS011;2755;50.728;7.108;2023-07-13T14:47:51;202.43;;;174.13;;
5465;SDS011;2755;50.728;7.108;2023-07-13T14:50:22;202.87;;;178.50;;
5465;SDS011;2755;50.728;7.108;2023-07-13T14:52:54;200.43;;;172.27;;
5465;SDS011;2755;50.728;7.108;2023-07-13T14:55:19;203.50;;;180.27;;
5465;SDS011;2755;50.728;7.108;2023-07-13T14:57:46;200.60;;;178.43;;
5465;SDS011;2755;50.728;7.108;2023-07-13T15:00:15;207.73;;;184.93;;
5465;SDS011;2755;50.728;7.108;2023-07-13T15:02:43;201.27;;;178.17;;
5465;SDS011;2755;50.728;7.108;2023-07-13T15:05:13;200.97;;;178.07;;
5465;SDS011;2755;50.728;7.108;2023-07-13T15:07:40;208.03;;;185.27;;